sensor_id;sensor_type;location;lat;lon;timestamp;pressure;altitude;pressure_sealevel;temperature;humidity
63204;BME280;49297;43.210;27.914;2023-08-31T00:00:41;100271.28;;;27.19;73.44
63204;BME280;49297;43.210;27.914;2023-08-31T00:03:08;100266.91;;;27.17;73.66
63204;BME280;49297;43.210;27.914;2023-08-31T00:05:37;100268.81;;;27.17;73.70
63204;BME280;49297;43.210;27.914;2023-08-31T00:08:05;100274.50;;;27.15;73.61
63204;BME280;49297;43.210;27.914;2023-08-31T00:10:32;100270.38;;;27.13;73.54
63204;BME280;49297;43.210;27.914;2023-08-31T00:12:57;100266.03;;;27.12;73.63
63204;BME280;49297;43.210;27.914;2023-08-31T00:15:23;100266.28;;;27.10;73.63
63204;BME280;49297;43.210;27.914;2023-08-31T00:17:49;100269.25;;;27.09;73.56
63204;BME280;49297;43.210;27.914;2023-08-31T00:20:16;100269.53;;;27.07;73.15
63204;BME280;49297;43.210;27.914;2023-08-31T00:22:42;100268.97;;;27.05;72.99
63204;BME280;49297;43.210;27.914;2023-08-31T00:25:08;100267.84;;;27.01;72.52
63204;BME280;49297;43.210;27.914;2023-08-31T00:27:34;100273.53;;;27.00;72.61
63204;BME280;49297;43.210;27.914;2023-08-31T00:30:05;100273.78;;;26.98;72.43
63204;BME280;49297;43.210;27.914;2023-08-31T00:32:33;100277.59;;;26.97;72.56
63204;BME280;49297;43.210;27.914;2023-08-31T00:34:59;100265.59;;;26.93;72.37
63204;BME280;49297;43.210;27.914;2023-08-31T00:37:27;100265.59;;;26.93;72.22
63204;BME280;49297;43.210;27.914;2023-08-31T00:39:54;100263.97;;;26.92;72.12
63204;BME280;49297;43.210;27.914;2023-08-31T00:42:20;100267.50;;;26.92;72.32
63204;BME280;49297;43.210;27.914;2023-08-31T00:44:47;100276.69;;;26.91;72.47
63204;BME280;49297;43.210;27.914;2023-08-31T00:47:13;100271.53;;;26.90;72.40
63204;BME280;49297;43.210;27.914;2023-08-31T00:49:40;100275.34;;;26.89;72.49
63204;BME280;49297;43.210;27.914;2023-08-31T00:52:07;100275.34;;;26.89;72.52
63204;BME280;49297;43.210;27.914;2023-08-31T00:54:34;100282.38;;;26.90;72.67
63204;BME280;49297;43.210;27.914;2023-08-31T00:57:00;100278.06;;;26.89;72.79
63204;BME280;49297;43.210;27.914;2023-08-31T00:59:26;100284.28;;;26.89;72.87
63204;BME280;49297;43.210;27.914;2023-08-31T01:02:04;100282.66;;;26.88;72.96
63204;BME280;49297;43.210;27.914;2023-08-31T01:04:56;100298.38;;;26.86;73.23
63204;BME280;49297;43.210;27.914;2023-08-31T01:10:20;100315.63;;;26.75;74.12
63204;BME280;49297;43.210;27.914;2023-08-31T01:13:02;100314.22;;;26.67;74.86
63204;BME280;49297;43.210;27.914;2023-08-31T01:15:30;100308.47;;;26.64;74.72
63204;BME280;49297;43.210;27.914;2023-08-31T01:17:58;100312.72;;;26.59;75.34
63204;BME280;49297;43.210;27.914;2023-08-31T01:20:34;100314.06;;;26.57;75.19
63204;BME280;49297;43.210;27.914;2023-08-31T01:23:06;100309.38;;;26.52;74.79
63204;BME280;49297;43.210;27.914;2023-08-31T01:25:36;100308.50;;;26.47;75.19
63204;BME280;49297;43.210;27.914;2023-08-31T01:28:02;100310.91;;;26.43;75.22
63204;BME280;49297;43.210;27.914;2023-08-31T01:30:32;100306.00;;;26.40;75.30
63204;BME280;49297;43.210;27.914;2023-08-31T01:32:58;100310.78;;;26.33;75.38
63204;BME280;49297;43.210;27.914;2023-08-31T01:35:25;100316.41;;;26.26;75.59
63204;BME280;49297;43.210;27.914;2023-08-31T01:37:58;100330.94;;;26.20;75.97
63204;BME280;49297;43.210;27.914;2023-08-31T01:40:35;100329.56;;;26.17;75.69
63204;BME280;49297;43.210;27.914;2023-08-31T01:43:03;100328.69;;;26.12;76.12
63204;BME280;49297;43.210;27.914;2023-08-31T01:45:31;100330.75;;;26.05;76.08
63204;BME280;49297;43.210;27.914;2023-08-31T01:48:02;100331.25;;;26.01;76.28
63204;BME280;49297;43.210;27.914;2023-08-31T01:50:28;100338.50;;;25.96;75.85
63204;BME280;49297;43.210;27.914;2023-08-31T01:52:53;100332.50;;;25.94;76.04
63204;BME280;49297;43.210;27.914;2023-08-31T01:55:19;100338.72;;;25.94;76.17
63204;BME280;49297;43.210;27.914;2023-08-31T01:57:47;100337.66;;;25.95;75.93
63204;BME280;49297;43.210;27.914;2023-08-31T02:00:15;100325.19;;;25.94;75.88
63204;BME280;49297;43.210;27.914;2023-08-31T02:02:41;100335.22;;;25.94;75.81
63204;BME280;49297;43.210;27.914;2023-08-31T02:05:08;100332.50;;;25.94;75.15
63204;BME280;49297;43.210;27.914;2023-08-31T02:07:34;100341.66;;;25.93;75.25
63204;BME280;49297;43.210;27.914;2023-08-31T02:10:00;100340.84;;;25.92;75.34
63204;BME280;49297;43.210;27.914;2023-08-31T02:12:25;100336.72;;;25.90;74.88
63204;BME280;49297;43.210;27.914;2023-08-31T02:14:53;100344.28;;;25.88;75.07
63204;BME280;49297;43.210;27.914;2023-08-31T02:17:19;100337.97;;;25.82;75.17
63204;BME280;49297;43.210;27.914;2023-08-31T02:19:45;100340.94;;;25.80;75.03
63204;BME280;49297;43.210;27.914;2023-08-31T02:22:11;100330.00;;;25.75;75.19
63204;BME280;49297;43.210;27.914;2023-08-31T02:24:36;100336.75;;;25.73;75.36
63204;BME280;49297;43.210;27.914;2023-08-31T02:27:02;100336.75;;;25.73;75.49
63204;BME280;49297;43.210;27.914;2023-08-31T02:29:28;100336.75;;;25.73;75.65
63204;BME280;49297;43.210;27.914;2023-08-31T02:31:54;100337.47;;;25.68;75.34
63204;BME280;49297;43.210;27.914;2023-08-31T02:34:19;100335.84;;;25.67;75.67
63204;BME280;49297;43.210;27.914;2023-08-31T02:36:45;100340.69;;;25.65;76.01
63204;BME280;49297;43.210;27.914;2023-08-31T02:39:11;100342.00;;;25.62;76.38
63204;BME280;49297;43.210;27.914;2023-08-31T02:41:38;100341.69;;;25.59;76.15
63204;BME280;49297;43.210;27.914;2023-08-31T02:44:04;100338.72;;;25.60;76.17
63204;BME280;49297;43.210;27.914;2023-08-31T02:46:29;100345.78;;;25.61;76.37
63204;BME280;49297;43.210;27.914;2023-08-31T02:48:55;100343.34;;;25.60;76.42
63204;BME280;49297;43.210;27.914;2023-08-31T02:51:21;100338.72;;;25.60;76.35
63204;BME280;49297;43.210;27.914;2023-08-31T02:53:47;100338.47;;;25.62;76.03
63204;BME280;49297;43.210;27.914;2023-08-31T02:56:14;100345.78;;;25.61;76.01
63204;BME280;49297;43.210;27.914;2023-08-31T02:58:40;100347.66;;;25.61;75.76
63204;BME280;49297;43.210;27.914;2023-08-31T03:01:07;100344.38;;;25.59;75.41
63204;BME280;49297;43.210;27.914;2023-08-31T03:03:33;100346.53;;;25.57;74.60
63204;BME280;49297;43.210;27.914;2023-08-31T03:06:00;100347.00;;;25.54;74.48
63204;BME280;49297;43.210;27.914;2023-08-31T03:08:26;100346.34;;;25.46;74.56
63204;BME280;49297;43.210;27.914;2023-08-31T03:10:51;100342.25;;;25.44;74.23
63204;BME280;49297;43.210;27.914;2023-08-31T03:13:18;100347.91;;;25.42;74.27
63204;BME280;49297;43.210;27.914;2023-08-31T03:15:44;100348.16;;;25.41;73.97
63204;BME280;49297;43.210;27.914;2023-08-31T03:18:10;100347.34;;;25.40;73.69
63204;BME280;49297;43.210;27.914;2023-08-31T03:20:35;100355.72;;;25.39;73.32
63204;BME280;49297;43.210;27.914;2023-08-31T03:23:01;100360.06;;;25.40;73.03
63204;BME280;49297;43.210;27.914;2023-08-31T03:25:27;100364.41;;;25.41;72.93
63204;BME280;49297;43.210;27.914;2023-08-31T03:27:53;100354.91;;;25.38;72.29
63204;BME280;49297;43.210;27.914;2023-08-31T03:30:19;100355.88;;;25.32;72.76
63204;BME280;49297;43.210;27.914;2023-08-31T03:32:45;100363.66;;;25.29;72.68
63204;BME280;49297;43.210;27.914;2023-08-31T03:35:10;100362.50;;;25.24;72.57
63204;BME280;49297;43.210;27.914;2023-08-31T03:37:37;100369.41;;;25.20;72.67
63204;BME280;49297;43.210;27.914;2023-08-31T03:40:03;100374.25;;;25.18;73.04
63204;BME280;49297;43.210;27.914;2023-08-31T03:42:32;100365.56;;;25.16;72.90
63204;BME280;49297;43.210;27.914;2023-08-31T03:44:59;100365.22;;;25.13;73.04
63204;BME280;49297;43.210;27.914;2023-08-31T03:47:25;100367.13;;;25.12;72.96
63204;BME280;49297;43.210;27.914;2023-08-31T03:49:50;100369.03;;;25.12;72.78
63204;BME280;49297;43.210;27.914;2023-08-31T03:52:16;100371.97;;;25.10;73.41
63204;BME280;49297;43.210;27.914;2023-08-31T03:54:42;100374.16;;;25.13;72.97
63204;BME280;49297;43.210;27.914;2023-08-31T03:57:07;100376.41;;;25.16;72.44
63204;BME280;49297;43.210;27.914;2023-08-31T03:59:33;100371.72;;;25.12;72.62
63204;BME280;49297;43.210;27.914;2023-08-31T04:01:59;100385.84;;;25.14;72.42
63204;BME280;49297;43.210;27.914;2023-08-31T04:04:24;100380.44;;;25.14;72.08
63204;BME280;49297;43.210;27.914;2023-08-31T04:06:50;100386.66;;;25.14;71.63
63204;BME280;49297;43.210;27.914;2023-08-31T04:09:16;100391.97;;;25.09;71.64
63204;BME280;49297;43.210;27.914;2023-08-31T04:11:42;100396.22;;;25.05;71.58
63204;BME280;49297;43.210;27.914;2023-08-31T04:14:08;100406.22;;;25.04;71.54
63204;BME280;49297;43.210;27.914;2023-08-31T04:16:34;100406.22;;;25.04;71.72
63204;BME280;49297;43.210;27.914;2023-08-31T04:18:59;100419.53;;;25.06;71.32
63204;BME280;49297;43.210;27.914;2023-08-31T04:21:25;100421.91;;;25.02;71.58
63204;BME280;49297;43.210;27.914;2023-08-31T04:23:51;100426.84;;;25.05;71.01
63204;BME280;49297;43.210;27.914;2023-08-31T04:26:16;100441.19;;;25.06;70.75
63204;BME280;49297;43.210;27.914;2023-08-31T04:28:43;100429.44;;;25.00;70.60
63204;BME280;49297;43.210;27.914;2023-08-31T04:31:09;100435.09;;;24.99;70.61
63204;BME280;49297;43.210;27.914;2023-08-31T04:33:36;100440.84;;;25.02;70.40
63204;BME280;49297;43.210;27.914;2023-08-31T04:36:02;100445.78;;;25.05;70.30
63204;BME280;49297;43.210;27.914;2023-08-31T04:38:31;100436.63;;;25.06;70.17
63204;BME280;49297;43.210;27.914;2023-08-31T04:41:00;100437.53;;;25.12;69.89
63204;BME280;49297;43.210;27.914;2023-08-31T04:43:27;100444.00;;;25.11;69.73
63204;BME280;49297;43.210;27.914;2023-08-31T04:45:53;100437.78;;;25.11;70.00
63204;BME280;49297;43.210;27.914;2023-08-31T04:48:19;100437.53;;;25.12;69.61
63204;BME280;49297;43.210;27.914;2023-08-31T04:50:45;100432.34;;;25.11;68.95
63204;BME280;49297;43.210;27.914;2023-08-31T04:53:11;100434.81;;;25.12;68.91
63204;BME280;49297;43.210;27.914;2023-08-31T04:55:36;100431.19;;;25.06;68.98
63204;BME280;49297;43.210;27.914;2023-08-31T04:58:03;100434.97;;;25.05;68.79
63204;BME280;49297;43.210;27.914;2023-08-31T05:00:29;100436.50;;;25.01;69.03
63204;BME280;49297;43.210;27.914;2023-08-31T05:02:56;100441.34;;;24.99;68.62
63204;BME280;49297;43.210;27.914;2023-08-31T05:05:22;100444.88;;;25.00;69.23
63204;BME280;49297;43.210;27.914;2023-08-31T05:07:47;100449.31;;;25.06;68.71
63204;BME280;49297;43.210;27.914;2023-08-31T05:10:13;100448.25;;;25.07;68.16
63204;BME280;49297;43.210;27.914;2023-08-31T05:12:39;100449.06;;;25.07;68.52
63204;BME280;49297;43.210;27.914;2023-08-31T05:15:05;100450.00;;;25.13;68.12
63204;BME280;49297;43.210;27.914;2023-08-31T05:17:32;100463.97;;;25.22;67.91
63204;BME280;49297;43.210;27.914;2023-08-31T05:19:57;100460.03;;;25.24;67.44
63204;BME280;49297;43.210;27.914;2023-08-31T05:22:23;100453.63;;;25.31;67.45
63204;BME280;49297;43.210;27.914;2023-08-31T05:24:49;100471.63;;;25.37;67.08
63204;BME280;49297;43.210;27.914;2023-08-31T05:27:15;100465.81;;;25.45;67.42
63204;BME280;49297;43.210;27.914;2023-08-31T05:29:40;100469.44;;;25.51;66.91
63204;BME280;49297;43.210;27.914;2023-08-31T05:32:06;100460.00;;;25.53;66.38
63204;BME280;49297;43.210;27.914;2023-08-31T05:34:32;100466.00;;;25.55;66.44
63204;BME280;49297;43.210;27.914;2023-08-31T05:37:03;100463.41;;;25.60;66.60
63204;BME280;49297;43.210;27.914;2023-08-31T05:39:32;100463.41;;;25.60;66.39
63204;BME280;49297;43.210;27.914;2023-08-31T05:41:58;100467.72;;;25.61;66.18
63204;BME280;49297;43.210;27.914;2023-08-31T05:44:24;100461.03;;;25.64;66.84
63204;BME280;49297;43.210;27.914;2023-08-31T05:46:50;100467.91;;;25.72;66.20
63204;BME280;49297;43.210;27.914;2023-08-31T05:49:15;100455.59;;;25.81;65.80
63204;BME280;49297;43.210;27.914;2023-08-31T05:51:41;100464.34;;;25.83;66.13
63204;BME280;49297;43.210;27.914;2023-08-31T05:54:07;100468.91;;;25.82;66.27
63204;BME280;49297;43.210;27.914;2023-08-31T05:56:38;100470.34;;;25.85;66.08
63204;BME280;49297;43.210;27.914;2023-08-31T05:59:05;100478.28;;;25.92;65.90
63204;BME280;49297;43.210;27.914;2023-08-31T06:01:32;100479.75;;;25.94;65.50
63204;BME280;49297;43.210;27.914;2023-08-31T06:03:58;100478.75;;;26.00;65.29
63204;BME280;49297;43.210;27.914;2023-08-31T06:06:23;100480.72;;;26.05;64.43
63204;BME280;49297;43.210;27.914;2023-08-31T06:08:49;100493.22;;;26.06;64.40
63204;BME280;49297;43.210;27.914;2023-08-31T06:11:15;100482.13;;;26.08;64.91
63204;BME280;49297;43.210;27.914;2023-08-31T06:13:41;100488.19;;;26.15;64.75
63204;BME280;49297;43.210;27.914;2023-08-31T06:16:07;100494.47;;;26.15;64.73
63204;BME280;49297;43.210;27.914;2023-08-31T06:18:33;100488.28;;;26.20;64.23
63204;BME280;49297;43.210;27.914;2023-08-31T06:21:00;100498.88;;;26.21;64.42
63204;BME280;49297;43.210;27.914;2023-08-31T06:23:26;100506.53;;;26.25;64.59
63204;BME280;49297;43.210;27.914;2023-08-31T06:25:52;100516.59;;;26.24;64.98
63204;BME280;49297;43.210;27.914;2023-08-31T06:28:17;100514.44;;;26.26;64.98
63204;BME280;49297;43.210;27.914;2023-08-31T06:30:43;100516.66;;;26.29;64.76
63204;BME280;49297;43.210;27.914;2023-08-31T06:33:14;100510.25;;;26.35;64.72
63204;BME280;49297;43.210;27.914;2023-08-31T06:35:40;100517.13;;;26.43;64.73
63204;BME280;49297;43.210;27.914;2023-08-31T06:38:06;100513.13;;;26.46;64.57
63204;BME280;49297;43.210;27.914;2023-08-31T06:40:31;100525.44;;;26.53;64.99
63204;BME280;49297;43.210;27.914;2023-08-31T06:42:57;100514.41;;;26.60;64.29
63204;BME280;49297;43.210;27.914;2023-08-31T06:45:23;100522.75;;;26.70;64.38
63204;BME280;49297;43.210;27.914;2023-08-31T06:47:49;100521.25;;;26.80;64.07
63204;BME280;49297;43.210;27.914;2023-08-31T06:50:15;100525.66;;;26.86;64.11
63204;BME280;49297;43.210;27.914;2023-08-31T06:52:41;100518.63;;;26.90;63.74
63204;BME280;49297;43.210;27.914;2023-08-31T06:55:08;100522.59;;;26.99;63.94
63204;BME280;49297;43.210;27.914;2023-08-31T06:57:33;100530.03;;;27.09;63.47
63204;BME280;49297;43.210;27.914;2023-08-31T07:00:00;100526.91;;;27.17;63.16
63204;BME280;49297;43.210;27.914;2023-08-31T07:02:26;100529.50;;;27.29;63.20
63204;BME280;49297;43.210;27.914;2023-08-31T07:04:52;100535.06;;;27.39;62.92
63204;BME280;49297;43.210;27.914;2023-08-31T07:07:18;100528.09;;;27.48;62.75
63204;BME280;49297;43.210;27.914;2023-08-31T07:09:47;100535.75;;;27.51;61.93
63204;BME280;49297;43.210;27.914;2023-08-31T07:12:16;100529.50;;;27.51;61.92
63204;BME280;49297;43.210;27.914;2023-08-31T07:14:42;100538.84;;;27.60;62.22
63204;BME280;49297;43.210;27.914;2023-08-31T07:17:08;100541.41;;;27.72;61.94
63204;BME280;49297;43.210;27.914;2023-08-31T07:19:37;100539.25;;;27.74;61.46
63204;BME280;49297;43.210;27.914;2023-08-31T07:22:03;100537.09;;;27.76;61.33
63204;BME280;49297;43.210;27.914;2023-08-31T07:24:30;100534.44;;;27.81;61.13
63204;BME280;49297;43.210;27.914;2023-08-31T07:26:56;100540.75;;;27.87;61.07
63204;BME280;49297;43.210;27.914;2023-08-31T07:29:24;100538.66;;;27.94;60.47
63204;BME280;49297;43.210;27.914;2023-08-31T07:31:50;100547.69;;;28.00;59.89
63204;BME280;49297;43.210;27.914;2023-08-31T07:34:16;100549.66;;;28.04;59.61
63204;BME280;49297;43.210;27.914;2023-08-31T07:36:42;100542.59;;;28.08;59.54
63204;BME280;49297;43.210;27.914;2023-08-31T07:39:08;100548.13;;;28.19;59.50
63204;BME280;49297;43.210;27.914;2023-08-31T07:41:33;100534.88;;;28.27;58.90
63204;BME280;49297;43.210;27.914;2023-08-31T07:43:59;100541.75;;;28.35;58.41
63204;BME280;49297;43.210;27.914;2023-08-31T07:46:25;100543.16;;;28.43;58.28
63204;BME280;49297;43.210;27.914;2023-08-31T07:48:50;100542.13;;;28.49;58.25
63204;BME280;49297;43.210;27.914;2023-08-31T07:51:16;100543.28;;;28.58;57.62
63204;BME280;49297;43.210;27.914;2023-08-31T07:53:42;100541.97;;;28.66;57.29
63204;BME280;49297;43.210;27.914;2023-08-31T07:56:08;100540.13;;;28.77;57.26
63204;BME280;49297;43.210;27.914;2023-08-31T07:58:33;100533.94;;;28.86;56.40
63204;BME280;49297;43.210;27.914;2023-08-31T08:01:00;100533.72;;;28.93;56.28
63204;BME280;49297;43.210;27.914;2023-08-31T08:03:26;100539.44;;;29.02;55.92
63204;BME280;49297;43.210;27.914;2023-08-31T08:05:52;100544.41;;;29.10;55.67
63204;BME280;49297;43.210;27.914;2023-08-31T08:08:18;100547.69;;;29.12;55.16
63204;BME280;49297;43.210;27.914;2023-08-31T08:10:44;100543.94;;;29.18;54.54
63204;BME280;49297;43.210;27.914;2023-08-31T08:13:09;100537.94;;;29.21;54.34
63204;BME280;49297;43.210;27.914;2023-08-31T08:15:35;100535.53;;;29.30;53.48
63204;BME280;49297;43.210;27.914;2023-08-31T08:18:01;100530.91;;;29.31;53.46
63204;BME280;49297;43.210;27.914;2023-08-31T08:20:27;100534.72;;;29.35;53.88
63204;BME280;49297;43.210;27.914;2023-08-31T08:22:54;100533.13;;;29.44;53.03
63204;BME280;49297;43.210;27.914;2023-08-31T08:25:21;100540.22;;;29.55;52.96
63204;BME280;49297;43.210;27.914;2023-08-31T08:27:47;100528.03;;;29.68;52.51
63204;BME280;49297;43.210;27.914;2023-08-31T08:30:14;100530.22;;;29.76;51.92
63204;BME280;49297;43.210;27.914;2023-08-31T08:32:41;100528.91;;;29.84;51.12
63204;BME280;49297;43.210;27.914;2023-08-31T08:35:07;100528.34;;;29.92;51.14
63204;BME280;49297;43.210;27.914;2023-08-31T08:37:33;100525.09;;;30.01;50.37
63204;BME280;49297;43.210;27.914;2023-08-31T08:40:00;100520.44;;;30.11;50.22
63204;BME280;49297;43.210;27.914;2023-08-31T08:42:29;100533.53;;;30.19;49.52
63204;BME280;49297;43.210;27.914;2023-08-31T08:44:56;100522.63;;;30.25;49.42
63204;BME280;49297;43.210;27.914;2023-08-31T08:47:25;100523.72;;;30.29;48.64
63204;BME280;49297;43.210;27.914;2023-08-31T08:49:52;100529.72;;;30.31;48.73
63204;BME280;49297;43.210;27.914;2023-08-31T08:52:18;100524.03;;;30.38;48.41
63204;BME280;49297;43.210;27.914;2023-08-31T08:54:45;100530.28;;;30.43;47.50
63204;BME280;49297;43.210;27.914;2023-08-31T08:57:11;100519.63;;;30.47;47.16
63204;BME280;49297;43.210;27.914;2023-08-31T08:59:37;100527.81;;;30.47;46.97
63204;BME280;49297;43.210;27.914;2023-08-31T09:02:03;100531.91;;;30.49;46.98
63204;BME280;49297;43.210;27.914;2023-08-31T09:04:32;100529.97;;;30.55;46.32
63204;BME280;49297;43.210;27.914;2023-08-31T09:06:58;100532.16;;;30.68;46.05
63204;BME280;49297;43.210;27.914;2023-08-31T09:09:23;100528.03;;;30.76;44.10
63204;BME280;49297;43.210;27.914;2023-08-31T09:11:49;100529.69;;;30.77;44.49
63204;BME280;49297;43.210;27.914;2023-08-31T09:14:19;100532.94;;;30.79;43.18
63204;BME280;49297;43.210;27.914;2023-08-31T09:16:46;100536.47;;;30.85;42.91
63204;BME280;49297;43.210;27.914;2023-08-31T09:19:19;100525.28;;;30.86;42.77
63204;BME280;49297;43.210;27.914;2023-08-31T09:21:47;100532.66;;;30.86;42.69
63204;BME280;49297;43.210;27.914;2023-08-31T09:24:13;100523.38;;;30.82;41.34
63204;BME280;49297;43.210;27.914;2023-08-31T09:26:40;100524.22;;;30.82;41.40
63204;BME280;49297;43.210;27.914;2023-08-31T09:29:08;100521.16;;;30.84;41.33
63204;BME280;49297;43.210;27.914;2023-08-31T09:31:34;100518.16;;;30.90;41.31
63204;BME280;49297;43.210;27.914;2023-08-31T09:34:00;100528.81;;;31.02;41.27
63204;BME280;49297;43.210;27.914;2023-08-31T09:36:26;100526.84;;;31.13;39.27
63204;BME280;49297;43.210;27.914;2023-08-31T09:38:57;100527.38;;;31.20;39.56
63204;BME280;49297;43.210;27.914;2023-08-31T09:41:24;100516.66;;;31.29;39.34
63204;BME280;49297;43.210;27.914;2023-08-31T09:43:50;100523.72;;;31.40;38.91
63204;BME280;49297;43.210;27.914;2023-08-31T09:46:16;100534.91;;;31.49;39.64
63204;BME280;49297;43.210;27.914;2023-08-31T09:48:42;100538.97;;;31.57;38.63
63204;BME280;49297;43.210;27.914;2023-08-31T09:51:10;100536.72;;;31.64;38.18
63204;BME280;49297;43.210;27.914;2023-08-31T09:53:41;100539.38;;;31.79;38.43
63204;BME280;49297;43.210;27.914;2023-08-31T09:56:12;100533.22;;;31.98;37.93
63204;BME280;49297;43.210;27.914;2023-08-31T09:58:39;100537.31;;;32.05;36.66
63204;BME280;49297;43.210;27.914;2023-08-31T10:01:05;100542.16;;;32.14;38.86
63204;BME280;49297;43.210;27.914;2023-08-31T10:03:31;100543.44;;;32.27;41.74
63204;BME280;49297;43.210;27.914;2023-08-31T10:05:58;100542.50;;;32.36;42.04
63204;BME280;49297;43.210;27.914;2023-08-31T10:08:24;100533.72;;;32.39;38.15
63204;BME280;49297;43.210;27.914;2023-08-31T10:10:52;100537.94;;;32.56;41.24
63204;BME280;49297;43.210;27.914;2023-08-31T10:13:19;100547.38;;;32.74;45.71
63204;BME280;49297;43.210;27.914;2023-08-31T10:15:48;100543.84;;;32.73;47.39
63204;BME280;49297;43.210;27.914;2023-08-31T10:18:20;100546.88;;;32.72;46.96
63204;BME280;49297;43.210;27.914;2023-08-31T10:20:46;100556.41;;;32.74;47.10
63204;BME280;49297;43.210;27.914;2023-08-31T10:23:12;100551.94;;;32.84;47.96
63204;BME280;49297;43.210;27.914;2023-08-31T10:28:24;100558.94;;;32.95;48.42
63204;BME280;49297;43.210;27.914;2023-08-31T10:31:03;100549.72;;;32.86;48.93
63204;BME280;49297;43.210;27.914;2023-08-31T10:33:33;100569.53;;;32.77;49.94
63204;BME280;49297;43.210;27.914;2023-08-31T10:36:00;100573.50;;;32.66;51.02
63204;BME280;49297;43.210;27.914;2023-08-31T10:38:31;100576.81;;;32.63;51.28
63204;BME280;49297;43.210;27.914;2023-08-31T10:43:52;100562.09;;;32.54;51.42
63204;BME280;49297;43.210;27.914;2023-08-31T10:49:35;100567.78;;;32.28;52.18
63204;BME280;49297;43.210;27.914;2023-08-31T10:51:38;100553.09;;;32.14;52.70
63204;BME280;49297;43.210;27.914;2023-08-31T10:54:24;100565.97;;;32.13;53.40
63204;BME280;49297;43.210;27.914;2023-08-31T10:59:49;100565.25;;;31.97;53.07
63204;BME280;49297;43.210;27.914;2023-08-31T11:07:46;100563.53;;;31.67;53.90
63204;BME280;49297;43.210;27.914;2023-08-31T11:10:18;100559.97;;;31.72;54.06
63204;BME280;49297;43.210;27.914;2023-08-31T11:12:53;100563.50;;;31.72;54.39
63204;BME280;49297;43.210;27.914;2023-08-31T11:15:22;100555.09;;;31.58;54.76
63204;BME280;49297;43.210;27.914;2023-08-31T11:17:52;100564.31;;;31.73;54.70
63204;BME280;49297;43.210;27.914;2023-08-31T11:20:20;100568.28;;;31.91;54.31
63204;BME280;49297;43.210;27.914;2023-08-31T11:22:48;100560.25;;;32.10;53.91
63204;BME280;49297;43.210;27.914;2023-08-31T11:25:18;100553.72;;;32.40;52.84
63204;BME280;49297;43.210;27.914;2023-08-31T11:28:02;100558.81;;;32.81;51.97
63204;BME280;49297;43.210;27.914;2023-08-31T11:30:32;100562.28;;;33.16;50.76
63204;BME280;49297;43.210;27.914;2023-08-31T11:33:08;100565.91;;;33.54;49.23
63204;BME280;49297;43.210;27.914;2023-08-31T11:35:39;100565.56;;;33.80;48.62
63204;BME280;49297;43.210;27.914;2023-08-31T11:38:08;100567.03;;;33.53;48.78
63204;BME280;49297;43.210;27.914;2023-08-31T11:40:35;100574.09;;;33.11;50.61
63204;BME280;49297;43.210;27.914;2023-08-31T11:43:04;100580.13;;;32.89;51.37
63204;BME280;49297;43.210;27.914;2023-08-31T11:45:31;100576.75;;;32.68;52.04
63204;BME280;49297;43.210;27.914;2023-08-31T11:47:59;100580.66;;;32.62;52.79
63204;BME280;49297;43.210;27.914;2023-08-31T11:50:25;100586.44;;;32.60;52.90
63204;BME280;49297;43.210;27.914;2023-08-31T11:52:51;100576.88;;;32.53;52.45
63204;BME280;49297;43.210;27.914;2023-08-31T11:55:19;100578.81;;;32.52;52.50
63204;BME280;49297;43.210;27.914;2023-08-31T11:57:53;100587.06;;;32.76;52.16
63204;BME280;49297;43.210;27.914;2023-08-31T12:00:22;100587.91;;;33.30;51.16
63204;BME280;49297;43.210;27.914;2023-08-31T12:02:58;100584.50;;;33.57;49.85
63204;BME280;49297;43.210;27.914;2023-08-31T12:05:25;100587.28;;;33.33;49.05
63204;BME280;49297;43.210;27.914;2023-08-31T12:07:53;100579.63;;;33.06;51.16
63204;BME280;49297;43.210;27.914;2023-08-31T12:10:20;100581.91;;;32.99;51.37
63204;BME280;49297;43.210;27.914;2023-08-31T12:12:45;100583.38;;;32.91;51.65
63204;BME280;49297;43.210;27.914;2023-08-31T12:15:11;100581.25;;;32.83;52.11
63204;BME280;49297;43.210;27.914;2023-08-31T12:17:38;100580.84;;;32.71;51.24
63204;BME280;49297;43.210;27.914;2023-08-31T12:20:05;100584.66;;;32.75;51.03
63204;BME280;49297;43.210;27.914;2023-08-31T12:22:32;100579.97;;;32.75;51.54
63204;BME280;49297;43.210;27.914;2023-08-31T12:24:58;100571.53;;;32.72;51.67
63204;BME280;49297;43.210;27.914;2023-08-31T12:27:24;100580.25;;;32.74;51.77
63204;BME280;49297;43.210;27.914;2023-08-31T12:29:49;100582.56;;;32.61;52.10
63204;BME280;49297;43.210;27.914;2023-08-31T12:32:16;100582.44;;;32.42;51.65
63204;BME280;49297;43.210;27.914;2023-08-31T12:34:44;100579.69;;;32.42;51.39
63204;BME280;49297;43.210;27.914;2023-08-31T12:37:10;100582.94;;;32.50;51.43
63204;BME280;49297;43.210;27.914;2023-08-31T12:39:37;100573.22;;;32.33;52.11
63204;BME280;49297;43.210;27.914;2023-08-31T12:42:03;100575.25;;;32.17;52.41
63204;BME280;49297;43.210;27.914;2023-08-31T12:44:29;100569.88;;;32.02;53.63
63204;BME280;49297;43.210;27.914;2023-08-31T12:46:55;100571.66;;;31.82;54.20
63204;BME280;49297;43.210;27.914;2023-08-31T12:49:21;100570.16;;;31.56;54.60
63204;BME280;49297;43.210;27.914;2023-08-31T12:51:48;100570.53;;;31.28;55.82
63204;BME280;49297;43.210;27.914;2023-08-31T12:54:16;100571.41;;;31.08;56.67
63204;BME280;49297;43.210;27.914;2023-08-31T12:56:41;100566.00;;;30.93;57.43
63204;BME280;49297;43.210;27.914;2023-08-31T12:59:07;100579.66;;;30.78;58.44